Time;durP1;ratioP1;P1;durP2;ratioP2;P2;SDS_P1;SDS_P2;PMS_P1;PMS_P2;Temp;Humidity;BMP_temperature;BMP_pressure;BME280_temperature;BME280_humidity;BME280_pressure;Samples;Min_cycle;Max_cycle;Signal;HPM_P1;HPM_P2
2021/08/18 02:46:56;;;;;;;;;;;16.10;86.80;;;;;;5;36051914;41311145;-87
2021/08/18 02:50:16;;;;;;;;;;;16.10;88.70;;;;;;5;36014554;42017474;-86
2021/08/18 02:53:35;;;;;;;;;;;16.00;89.30;;;;;;5;36015972;41268279;-87
2021/08/18 02:56:54;;;;;;;;;;;16.00;90.30;;;;;;5;36015136;41267166;-87
2021/08/18 03:00:09;;;;;;;;;;;16.00;91.10;;;;;;5;36014703;41265809;-87
2021/08/18 03:03:26;;;;;;;;;;;16.00;92.30;;;;;;5;36014014;41266301;-88
2021/08/18 03:06:45;;;;;;;;;;;15.90;91.50;;;;;;5;36013092;41266399;-87
2021/08/18 03:10:05;;;;;;;;;;;15.90;92.30;;;;;;5;36013918;41265945;-87
2021/08/18 03:13:20;;;;;;;;;;;15.80;92.30;;;;;;5;36014472;41265863;-87
2021/08/18 03:16:37;;;;;;;;;;;15.70;92.70;;;;;;5;36014089;41266226;-87
2021/08/18 03:19:56;;;;;;;;;;;15.60;94.20;;;;;;5;36013408;41268144;-87
2021/08/18 03:23:17;;;;;;;;;;;15.50;97.10;;;;;;5;36013708;42016390;-88
2021/08/18 03:26:31;;;;;;;;;;;15.50;98.70;;;;;;5;36014671;41266401;-88
2021/08/18 03:29:48;;;;;;;;;;;15.40;98.50;;;;;;5;36013677;41266002;-87
2021/08/18 03:33:08;;;;;;;;;;;15.50;99.60;;;;;;5;36014083;41266604;-88
2021/08/18 03:36:28;;;;;;;;;;;15.50;99.00;;;;;;5;36013041;41266679;-88
2021/08/18 03:39:42;;;;;;;;;;;15.50;99.90;;;;;;5;36014344;41265621;-88
2021/08/18 03:43:01;;;;;;;;;;;15.40;99.90;;;;;;5;36014534;41268669;-91
2021/08/18 03:46:20;;;;;;;;;;;15.40;99.90;;;;;;5;36013853;41266472;-87
2021/08/18 03:49:40;;;;;;;;;;;15.30;99.90;;;;;;5;36013763;41265118;-88
2021/08/18 03:52:54;;;;;;;;;;;15.10;99.90;;;;;;5;36014399;41265884;-86
2021/08/18 03:56:12;;;;;;;;;;;15.00;99.90;;;;;;5;36012982;42017755;-86
2021/08/18 03:59:32;;;;;;;;;;;14.90;99.90;;;;;;5;36014183;41265921;-87
2021/08/18 04:02:51;;;;;;;;;;;15.00;99.90;;;;;;5;36014533;41268312;-86
2021/08/18 04:06:08;;;;;;;;;;;15.00;99.90;;;;;;5;36013982;41267087;-88
2021/08/18 04:09:26;;;;;;;;;;;15.00;99.90;;;;;;5;36013526;41267153;-86
2021/08/18 04:13:25;;;;;;;;;;;15.00;99.90;;;;;;5;36014740;41265701;-87
2021/08/18 04:16:45;;;;;;;;;;;15.00;99.90;;;;;;5;36014108;41266569;-86
2021/08/18 04:19:59;;;;;;;;;;;14.90;99.90;;;;;;5;36014553;41266900;-85
2021/08/18 04:23:16;;;;;;;;;;;14.80;99.90;;;;;;5;36013876;41265860;-87
2021/08/18 04:26:35;;;;;;;;;;;14.80;99.90;;;;;;5;36015038;41265982;-87
2021/08/18 04:29:56;;;;;;;;;;;14.80;99.90;;;;;;5;36013888;42016968;-87
2021/08/18 04:33:10;;;;;;;;;;;14.70;99.90;;;;;;5;36013885;41267168;-87
2021/08/18 04:36:27;;;;;;;;;;;14.80;99.90;;;;;;5;36014300;41265625;-87
2021/08/18 04:39:47;;;;;;;;;;;14.80;99.90;;;;;;5;36014782;41266159;-88
2021/08/18 04:43:06;;;;;;;;;;;14.80;99.90;;;;;;5;36013450;41267779;-87
2021/08/18 04:46:20;;;;;;;;;;;14.80;99.90;;;;;;5;36014133;41267188;-88
2021/08/18 04:49:37;;;;;;;;;;;14.90;99.90;;;;;;5;36014887;41266098;-86
2021/08/18 04:52:57;;;;;;;;;;;14.80;99.90;;;;;;5;36012619;41266085;-85
2021/08/18 04:56:16;;;;;;;;;;;14.90;99.90;;;;;;5;36018146;41267154;-87
2021/08/18 04:59:31;;;;;;;;;;;14.90;99.90;;;;;;5;36014108;41266565;-86
2021/08/18 05:02:49;;;;;;;;;;;14.90;99.90;;;;;;5;36013199;42016699;-88
2021/08/18 05:06:09;;;;;;;;;;;14.90;99.90;;;;;;5;36014358;41267034;-87
2021/08/18 05:09:28;;;;;;;;;;;15.00;99.90;;;;;;5;36015169;41267169;-87
2021/08/18 05:12:42;;;;;;;;;;;15.00;99.90;;;;;;5;36013916;41265249;-88
2021/08/18 05:15:59;;;;;;;;;;;14.90;99.90;;;;;;5;36014687;41266006;-92
2021/08/18 05:19:19;;;;;;;;;;;14.80;99.90;;;;;;5;36014502;41265888;-95
2021/08/18 05:22:38;;;;;;;;;;;14.70;99.90;;;;;;5;36016112;41265225;-92
2021/08/18 05:25:52;;;;;;;;;;;14.80;99.90;;;;;;5;36015267;41266149;-91
2021/08/18 05:29:09;;;;;;;;;;;14.80;99.90;;;;;;5;36013720;41266528;-92
2021/08/18 05:32:29;;;;;;;;;;;14.90;99.90;;;;;;5;36013169;41265672;-93
2021/08/18 05:35:50;;;;;;;;;;;14.70;99.90;;;;;;5;36014245;42017941;-88
2021/08/18 05:39:04;;;;;;;;;;;14.60;99.90;;;;;;5;36014493;41267230;-88
2021/08/18 05:42:21;;;;;;;;;;;14.50;99.90;;;;;;5;36014794;41265614;-92
2021/08/18 05:45:41;;;;;;;;;;;14.50;99.90;;;;;;5;36014133;41265932;-89
2021/08/18 05:49:00;;;;;;;;;;;14.50;99.90;;;;;;5;36014358;41266615;-90
2021/08/18 05:52:15;;;;;;;;;;;14.50;99.90;;;;;;5;36015272;41266167;-94
2021/08/18 05:55:32;;;;;;;;;;;14.70;99.90;;;;;;5;36014041;41266041;-92
2021/08/18 05:58:51;;;;;;;;;;;14.80;99.90;;;;;;5;36014231;41266541;-93
2021/08/18 06:02:10;;;;;;;;;;;15.00;99.90;;;;;;5;36014167;41266017;-94
2021/08/18 06:05:25;;;;;;;;;;;15.00;99.90;;;;;;5;36014627;41266496;-91
2021/08/18 06:08:43;;;;;;;;;;;15.00;99.90;;;;;;5;36013941;42016208;-94
2021/08/18 06:12:04;;;;;;;;;;;15.00;99.90;;;;;;5;36014473;41266302;-90
2021/08/18 06:15:23;;;;;;;;;;;15.00;99.90;;;;;;5;36015217;41265869;-90
2021/08/18 06:18:38;;;;;;;;;;;15.10;99.90;;;;;;5;36014874;41265346;-90
2021/08/18 06:21:55;;;;;;;;;;;15.10;99.90;;;;;;5;36015188;41266835;-90
2021/08/18 06:25:15;;;;;;;;;;;15.10;99.90;;;;;;5;36015122;41266943;-90
2021/08/18 06:28:34;;;;;;;;;;;15.20;99.90;;;;;;5;36013783;41266403;-90
2021/08/18 06:31:50;;;;;;;;;;;15.20;99.90;;;;;;5;36014211;41266096;-90
2021/08/18 06:35:07;;;;;;;;;;;15.20;99.90;;;;;;5;36013648;41267812;-90
2021/08/18 06:38:27;;;;;;;;;;;15.20;99.90;;;;;;5;36014193;41270874;-90
2021/08/18 06:41:48;;;;;;;;;;;15.30;99.90;;;;;;5;36014607;42016763;-90
2021/08/18 06:45:02;;;;;;;;;;;15.30;99.90;;;;;;5;36014412;41265702;-90
2021/08/18 06:48:19;;;;;;;;;;;15.40;99.90;;;;;;5;36013850;41265996;-90
2021/08/18 06:51:38;;;;;;;;;;;15.30;99.90;;;;;;5;36014706;41266118;-90
2021/08/18 06:54:58;;;;;;;;;;;15.40;99.90;;;;;;5;36014824;41265636;-90
2021/08/18 06:58:12;;;;;;;;;;;15.40;99.90;;;;;;5;36013705;41268262;-90
2021/08/18 07:01:29;;;;;;;;;;;15.50;99.90;;;;;;5;36013836;41265921;-89
2021/08/18 07:04:48;;;;;;;;;;;15.70;99.90;;;;;;5;36014632;41265882;-89
2021/08/18 07:08:08;;;;;;;;;;;15.70;99.90;;;;;;5;36013064;41266390;-89
2021/08/18 07:11:22;;;;;;;;;;;15.80;99.90;;;;;;5;36014440;41266502;-90
2021/08/18 07:14:41;;;;;;;;;;;15.90;99.90;;;;;;5;36013795;42016190;-89
2021/08/18 07:18:02;;;;;;;;;;;15.90;99.90;;;;;;5;36013657;41268868;-89
2021/08/18 07:21:22;;;;;;;;;;;15.80;99.90;;;;;;5;36013401;41266813;-89
2021/08/18 07:24:37;;;;;;;;;;;15.80;99.90;;;;;;5;36013119;41265920;-88
2021/08/18 07:27:55;;;;;;;;;;;15.60;99.90;;;;;;5;36013115;41266618;-89
2021/08/18 07:31:25;;;;;;;;;;;15.50;99.90;;;;;;5;36014813;41265751;-90
2021/08/18 07:34:44;;;;;;;;;;;15.40;99.90;;;;;;5;36015037;41265716;-90
2021/08/18 07:37:58;;;;;;;;;;;15.50;99.90;;;;;;5;36015075;41267594;-89
2021/08/18 07:41:15;;;;;;;;;;;15.60;99.90;;;;;;5;36013964;41266924;-90
2021/08/18 07:44:35;;;;;;;;;;;15.60;99.90;;;;;;5;36013986;41267496;-90
2021/08/18 07:47:55;;;;;;;;;;;15.60;99.90;;;;;;5;36013553;42016887;-90
2021/08/18 07:51:10;;;;;;;;;;;15.60;99.90;;;;;;5;36014579;41265918;-90
2021/08/18 07:54:27;;;;;;;;;;;15.80;99.90;;;;;;5;36013559;41266213;-90
2021/08/18 07:57:46;;;;;;;;;;;16.00;99.90;;;;;;5;36012824;41266678;-90
2021/08/18 08:01:06;;;;;;;;;;;16.20;99.90;;;;;;5;36014376;41265094;-90
2021/08/18 08:04:20;;;;;;;;;;;16.30;99.90;;;;;;5;36013272;41266140;-90
2021/08/18 08:07:37;;;;;;;;;;;16.30;99.90;;;;;;5;36013628;41265577;-88
2021/08/18 08:10:57;;;;;;;;;;;16.40;99.90;;;;;;5;36014071;41266129;-90
2021/08/18 08:14:16;;;;;;;;;;;16.60;99.90;;;;;;5;36014073;41265816;-90
2021/08/18 08:17:30;;;;;;;;;;;16.70;99.90;;;;;;5;36014087;41265732;-89
2021/08/18 08:20:49;;;;;;;;;;;16.80;99.90;;;;;;5;36013622;42017539;-90
2021/08/18 08:24:08;;;;;;;;;;;16.80;99.90;;;;;;5;36014188;41266405;-90
2021/08/18 08:27:28;;;;;;;;;;;17.00;99.90;;;;;;5;36013248;41266457;-90
2021/08/18 08:30:42;;;;;;;;;;;17.20;99.90;;;;;;5;36013871;41266634;-91
2021/08/18 08:33:59;;;;;;;;;;;17.40;99.90;;;;;;5;36014378;41265543;-90
2021/08/18 08:37:20;;;;;;;;;;;17.30;99.90;;;;;;5;36013235;41266314;-89
2021/08/18 08:40:42;;;;;;;;;;;17.50;99.90;;;;;;5;36013763;41266680;-90
2021/08/18 08:43:56;;;;;;;;;;;17.80;99.90;;;;;;5;36013438;41266341;-90
2021/08/18 08:47:17;;;;;;;;;;;18.30;99.90;;;;;;5;36013827;41267321;-90
2021/08/18 08:50:37;;;;;;;;;;;18.70;98.70;;;;;;5;36014280;41266454;-90
2021/08/18 08:53:58;;;;;;;;;;;19.10;97.30;;;;;;5;36013568;42016728;-90
2021/08/18 08:57:12;;;;;;;;;;;19.70;94.40;;;;;;5;36013190;41266750;-91
2021/08/18 09:00:29;;;;;;;;;;;20.10;92.30;;;;;;5;36014077;41266045;-91
2021/08/18 09:03:49;;;;;;;;;;;20.20;90.50;;;;;;5;36014863;41265640;-90
2021/08/18 09:07:09;;;;;;;;;;;20.30;88.30;;;;;;5;36014388;41265774;-90
2021/08/18 09:10:24;;;;;;;;;;;20.50;86.80;;;;;;5;36013495;41266983;-90
2021/08/18 09:13:41;;;;;;;;;;;20.60;84.70;;;;;;5;36012971;41268203;-88
2021/08/18 09:17:00;;;;;;;;;;;21.00;84.80;;;;;;5;36015064;41265712;-90
2021/08/18 09:20:24;;;;;;;;;;;21.40;83.30;;;;;;5;36014145;41266117;-90
2021/08/18 09:23:38;;;;;;;;;;;21.50;82.80;;;;;;5;36013274;41266497;-90
2021/08/18 09:27:08;;;;;;;;;;;21.50;77.90;;;;;;5;36013312;42016725;-90
2021/08/18 09:30:30;;;;;;;;;;;21.50;79.70;;;;;;5;36013400;41266298;-89
2021/08/18 09:33:54;;;;;;;;;;;21.50;79.30;;;;;;5;36015005;41269939;-90
2021/08/18 09:37:11;;;;;;;;;;;21.50;78.70;;;;;;5;36014508;41266023;-90
2021/08/18 09:40:28;;;;;;;;;;;21.90;77.80;;;;;;5;36013298;41266431;-90
2021/08/18 09:43:48;;;;;;;;;;;22.70;75.90;;;;;;5;36013339;41266585;-89
2021/08/18 09:47:07;;;;;;;;;;;23.60;68.90;;;;;;5;36013472;41266918;-89
2021/08/18 09:50:22;;;;;;;;;;;23.50;68.30;;;;;;5;36013939;41266586;-90
2021/08/18 09:53:40;;;;;;;;;;;23.70;67.60;;;;;;5;36013745;41266392;-89
2021/08/18 09:57:05;;;;;;;;;;;25.30;65.20;;;;;;5;36013623;41266726;-89
2021/08/18 10:00:26;;;;;;;;;;;26.10;59.40;;;;;;5;36014530;42017419;-90
2021/08/18 10:03:41;;;;;;;;;;;27.50;58.80;;;;;;5;36013539;41266048;-90
2021/08/18 10:06:59;;;;;;;;;;;27.80;56.40;;;;;;5;36014732;41265899;-89
2021/08/18 10:10:18;;;;;;;;;;;28.40;55.00;;;;;;5;36013346;41266326;-90
2021/08/18 10:13:50;;;;;;;;;;;28.40;53.30;;;;;;5;36013735;41267831;-90
2021/08/18 10:17:04;;;;;;;;;;;28.80;53.20;;;;;;5;36013653;41266313;-89
2021/08/18 10:20:22;;;;;;;;;;;28.70;51.70;;;;;;5;36013585;41266633;-91
2021/08/18 10:27:54;;;;;;;;;;;27.70;52.80;;;;;;5;36015494;41266528;-92
2021/08/18 10:31:08;;;;;;;;;;;27.40;53.50;;;;;;5;36014153;41267087;-90
2021/08/18 10:34:36;;;;;;;;;;;27.00;54.10;;;;;;5;36015617;42017554;-90
2021/08/18 10:38:15;;;;;;;;;;;27.10;56.40;;;;;;5;36014187;41267761;-90
2021/08/18 10:41:54;;;;;;;;;;;27.40;54.50;;;;;;5;36014414;41266273;-90
2021/08/18 10:45:18;;;;;;;;;;;27.90;53.80;;;;;;5;36014956;41266949;-91
2021/08/18 10:48:53;;;;;;;;;;;28.50;53.10;;;;;;5;36015122;41267544;-92
2021/08/18 10:52:32;;;;;;;;;;;30.00;51.40;;;;;;5;36014954;41266174;-92
2021/08/18 10:55:52;;;;;;;;;;;31.90;48.40;;;;;;5;36013930;41266545;-91
2021/08/18 10:59:25;;;;;;;;;;;32.20;46.90;;;;;;5;36013774;41267504;-90
2021/08/18 11:02:45;;;;;;;;;;;32.00;46.10;;;;;;5;36013693;41267044;-92
2021/08/18 11:06:08;;;;;;;;;;;31.60;46.40;;;;;;5;36014929;41265768;-91
2021/08/18 11:09:48;;;;;;;;;;;31.40;46.10;;;;;;5;36013404;42017356;-91
2021/08/18 11:13:02;;;;;;;;;;;32.90;43.90;;;;;;5;36017042;41266057;-91
2021/08/18 11:16:26;;;;;;;;;;;34.30;43.70;;;;;;5;36013699;41266669;-92
2021/08/18 11:19:48;;;;;;;;;;;35.50;41.70;;;;;;5;36015066;41266056;-93
2021/08/18 11:23:07;;;;;;;;;;;36.00;41.70;;;;;;5;36013199;41266894;-91
2021/08/18 11:26:23;;;;;;;;;;;36.30;40.20;;;;;;5;36013962;41266476;-88
2021/08/18 11:29:40;;;;;;;;;;;36.80;39.80;;;;;;5;36015453;41265734;-89
2021/08/18 11:33:18;;;;;;;;;;;38.70;37.30;;;;;;5;36014499;41267914;-88
2021/08/18 11:36:44;;;;;;;;;;;38.10;37.30;;;;;;5;36013249;41266539;-89
2021/08/18 11:40:00;;;;;;;;;;;36.40;37.20;;;;;;5;36014616;41267130;-89
2021/08/18 11:43:39;;;;;;;;;;;34.50;39.20;;;;;;5;36014312;42016353;-89
2021/08/18 11:51:32;;;;;;;18.67;11.35;;;31.40;44.30;;;;;;176483;28;39017186;-88
2021/08/18 11:54:54;;;;;;;;;;;31.80;44.70;;;;;;5;39015467;39765031;-88
2021/08/18 11:58:07;;;;;;;;;;;31.60;44.60;;;;;;5;36013231;39016937;-88
2021/08/18 12:01:20;;;;;;;;;;;31.00;45.60;;;;;;5;36014381;39015026;-88
2021/08/18 12:04:32;;;;;;;;;;;30.60;46.20;;;;;;5;36014520;39015540;-88
2021/08/18 12:07:42;;;;;;;;;;;30.60;46.80;;;;;;5;36014699;39016610;-88
2021/08/18 12:10:54;;;;;;;;;;;31.60;46.60;;;;;;5;36013639;39015865;-88
2021/08/18 12:14:10;;;;;;;;;;;33.10;44.50;;;;;;5;36013540;39015017;-88
2021/08/18 12:17:21;;;;;;;;;;;34.40;42.70;;;;;;5;36013509;39015732;-89
2021/08/18 12:20:33;;;;;;;;;;;36.20;40.90;;;;;;5;36014320;39016244;-88
2021/08/18 12:23:46;;;;;;;;;;;36.60;37.60;;;;;;5;36013265;39016017;-89
2021/08/18 12:26:59;;;;;;;;;;;36.20;38.70;;;;;;5;36015433;39018070;-89
2021/08/18 12:30:11;;;;;;;;;;;34.60;39.70;;;;;;5;36014135;39016155;-88
2021/08/18 12:33:20;;;;;;;;;;;33.10;41.60;;;;;;5;36014822;39016186;-87
2021/08/18 12:36:32;;;;;;;;;;;31.70;43.60;;;;;;5;36013335;39015963;-90
2021/08/18 12:40:03;;;;;;;;;;;30.50;45.00;;;;;;5;36015084;39016848;-90
2021/08/18 12:43:19;;;;;;;;;;;29.30;46.80;;;;;;5;36015989;39015859;-90
2021/08/18 12:46:31;;;;;;;;;;;28.30;49.60;;;;;;5;36013525;39016080;-90
2021/08/18 12:49:47;;;;;;;;;;;27.60;50.20;;;;;;5;36014535;39016609;-89
2021/08/18 12:52:59;;;;;;;;;;;27.00;50.90;;;;;;5;36014476;39015534;-89
2021/08/18 12:56:10;;;;;;;;;;;27.40;52.40;;;;;;5;36013973;39015627;-89
2021/08/18 12:59:20;;;;;;;;;;;28.10;51.40;;;;;;5;36013834;39015538;-90
2021/08/18 13:02:31;;;;;;;;;;;29.80;48.50;;;;;;5;36013282;39014994;-90
2021/08/18 13:05:43;;;;;;;;;;;30.70;47.20;;;;;;5;36014339;39015340;-91
2021/08/18 13:08:54;;;;;;;;;;;30.90;46.40;;;;;;5;36014323;39016031;-90
2021/08/18 13:12:04;;;;;;;;;;;31.00;45.70;;;;;;5;36014292;39015629;-90
2021/08/18 13:15:16;;;;;;;;;;;31.70;45.60;;;;;;5;36014157;39016206;-91
2021/08/18 13:18:28;;;;;;;;;;;32.30;43.80;;;;;;5;36014869;39015925;-91
2021/08/18 13:21:39;;;;;;;;;;;33.20;42.20;;;;;;5;36014864;39015266;-88
2021/08/18 13:24:50;;;;;;;;;;;34.30;41.10;;;;;;5;36014833;39016310;-87
2021/08/18 13:28:02;;;;;;;;;;;35.00;39.40;;;;;;5;36013534;39017397;-88
2021/08/18 13:31:17;;;;;;;;;;;35.10;39.60;;;;;;5;36013184;39016298;-87
2021/08/18 13:34:28;;;;;;;;;;;35.70;38.90;;;;;;5;36014698;39015397;-88
2021/08/18 13:37:37;;;;;;;;;;;36.00;38.10;;;;;;5;36014410;39016027;-89
2021/08/18 13:40:48;;;;;;;;;;;36.10;38.50;;;;;;5;36014266;39015267;-88
2021/08/18 13:44:00;;;;;;;;;;;36.40;39.00;;;;;;5;36014874;39016168;-88
2021/08/18 13:47:12;;;;;;;;;;;36.40;38.10;;;;;;5;36014245;39015785;-88
2021/08/18 13:50:21;;;;;;;;;;;36.60;38.70;;;;;;5;36014435;39015992;-88
2021/08/18 13:53:32;;;;;;;;;;;36.90;39.00;;;;;;5;36013819;39015857;-88
2021/08/18 13:56:44;;;;;;;;;;;37.20;38.00;;;;;;5;36013209;39015481;-88
2021/08/18 13:59:56;;;;;;;;;;;37.00;36.90;;;;;;5;36014797;39016609;-88
2021/08/18 14:03:06;;;;;;;;;;;36.80;37.40;;;;;;5;36014692;39016267;-87
2021/08/18 14:06:18;;;;;;;;;;;36.60;37.90;;;;;;5;36014651;39016059;-88
2021/08/18 14:09:30;;;;;;;;;;;36.50;37.50;;;;;;5;36013928;39016230;-89
2021/08/18 14:12:41;;;;;;;;;;;36.40;37.60;;;;;;5;36014717;39014991;-88
2021/08/18 14:15:50;;;;;;;;;;;36.00;38.20;;;;;;5;36012952;39015645;-89
2021/08/18 14:19:02;;;;;;;;;;;36.00;37.70;;;;;;5;36013857;39015250;-88
2021/08/18 14:22:14;;;;;;;;;;;35.80;38.90;;;;;;5;36014942;39016148;-88
2021/08/18 14:25:25;;;;;;;;;;;35.50;38.60;;;;;;5;36014157;39015830;-88
2021/08/18 14:28:34;;;;;;;;;;;34.90;39.70;;;;;;5;36015047;39015223;-88
2021/08/18 14:31:46;;;;;;;;;;;34.50;39.60;;;;;;5;36013615;39016625;-88
2021/08/18 14:34:58;;;;;;;;;;;34.30;39.60;;;;;;5;36013529;39016786;-88
2021/08/18 14:38:09;;;;;;;;;;;34.40;40.80;;;;;;5;36013684;39015943;-88
2021/08/18 14:41:19;;;;;;;;;;;34.00;40.00;;;;;;5;36015475;39015638;-88
2021/08/18 14:44:31;;;;;;;;;;;33.80;40.80;;;;;;5;36013177;39016049;-88
2021/08/18 14:47:43;;;;;;;;;;;33.50;41.00;;;;;;5;36013247;39016487;-88
2021/08/18 14:50:54;;;;;;;;;;;33.20;41.40;;;;;;5;36014400;39016208;-90
2021/08/18 14:54:05;;;;;;;;;;;32.70;41.10;;;;;;5;36015039;39016671;-88
2021/08/18 14:57:17;;;;;;;;;;;32.20;42.80;;;;;;5;36015653;39016321;-89
2021/08/18 15:00:29;;;;;;;;;;;31.90;41.80;;;;;;5;36015857;39016298;-88
2021/08/18 15:03:40;;;;;;;;;;;31.30;44.00;;;;;;5;36013513;39016634;-89
2021/08/18 15:06:49;;;;;;;;;;;31.10;44.50;;;;;;5;36013851;39016737;-89
2021/08/18 15:10:02;;;;;;;;;;;31.00;44.70;;;;;;5;36014760;39017618;-89
2021/08/18 15:13:14;;;;;;;;;;;30.80;45.10;;;;;;5;36013964;39017458;-89
2021/08/18 15:16:25;;;;;;;;;;;30.70;45.20;;;;;;5;36014122;39015991;-89
2021/08/18 15:19:34;;;;;;;;;;;30.70;45.90;;;;;;5;36013650;39016904;-90
2021/08/18 15:22:46;;;;;;;;;;;30.30;45.20;;;;;;5;36013940;39017059;-90
2021/08/18 15:25:58;;;;;;;;;;;30.10;45.80;;;;;;5;36013445;39016610;-90
2021/08/18 15:29:09;;;;;;;;;;;29.90;46.20;;;;;;5;36014845;39014610;-90
2021/08/18 15:32:19;;;;;;;;;;;29.80;46.30;;;;;;5;36014303;39017634;-89
2021/08/18 15:35:31;;;;;;;;;;;29.40;47.20;;;;;;5;36014459;39017180;-89
2021/08/18 15:38:43;;;;;;;;;;;29.00;47.30;;;;;;5;36016432;39017351;-89
2021/08/18 15:41:54;;;;;;;;;;;28.90;48.00;;;;;;5;36016643;39019504;-89
2021/08/18 15:45:04;;;;;;;;;;;28.60;48.20;;;;;;5;36014192;39015840;-89
2021/08/18 15:48:16;;;;;;;;;;;28.40;47.80;;;;;;5;36014007;39018123;-88
2021/08/18 15:51:28;;;;;;;;;;;28.30;48.70;;;;;;5;36016293;39018118;-87
2021/08/18 15:54:41;;;;;;;;;;;27.90;48.70;;;;;;5;36014507;39015105;-89
2021/08/18 15:57:49;;;;;;;;;;;27.90;50.00;;;;;;5;36015136;39015342;-87
2021/08/18 16:01:03;;;;;;;;;;;27.70;50.00;;;;;;5;36013314;39015030;-89
2021/08/18 16:04:14;;;;;;;;;;;27.50;49.90;;;;;;5;36014979;39015758;-88
2021/08/18 16:07:26;;;;;;;;;;;27.30;51.10;;;;;;5;36013275;39017521;-87
2021/08/18 16:10:34;;;;;;;;;;;27.10;50.80;;;;;;5;36013615;39015370;-90
2021/08/18 16:13:46;;;;;;;;;;;26.90;51.20;;;;;;5;36013027;39016804;-89
2021/08/18 16:16:58;;;;;;;;;;;26.60;51.60;;;;;;5;36014296;39016129;-91
2021/08/18 16:20:10;;;;;;;;;;;26.50;52.20;;;;;;5;36012938;39016100;-90
2021/08/18 16:23:19;;;;;;;;;;;26.40;52.50;;;;;;5;36014922;39015561;-87
2021/08/18 16:26:32;;;;;;;;;;;26.30;52.40;;;;;;5;36015011;39017422;-91
2021/08/18 16:29:44;;;;;;;;;;;26.20;53.70;;;;;;5;36013997;39015144;-89
2021/08/18 16:32:55;;;;;;;;;;;25.90;53.10;;;;;;5;36015408;39015947;-90
2021/08/18 16:36:05;;;;;;;;;;;25.70;53.50;;;;;;5;36014048;39016223;-89
2021/08/18 16:39:17;;;;;;;;;;;25.50;53.30;;;;;;5;36013598;39016297;-89
2021/08/18 16:42:29;;;;;;;;;;;25.20;53.80;;;;;;5;36014583;39016672;-89
2021/08/18 16:45:40;;;;;;;;;;;25.10;55.40;;;;;;5;36014340;39016149;-88
2021/08/18 16:48:49;;;;;;;;;;;24.80;55.80;;;;;;5;36014318;39016540;-89
2021/08/18 16:52:01;;;;;;;;;;;24.70;56.80;;;;;;5;36013800;39016111;-89
2021/08/18 16:55:13;;;;;;;;;;;24.70;57.10;;;;;;5;36012939;39015533;-89
2021/08/18 16:58:24;;;;;;;;;;;24.50;57.00;;;;;;5;36013977;39016346;-89
2021/08/18 17:01:33;;;;;;;;;;;24.40;57.70;;;;;;5;36014595;39017567;-88
2021/08/18 17:04:45;;;;;;;;;;;24.20;57.80;;;;;;5;36013733;39016187;-89
2021/08/18 17:07:57;;;;;;;;;;;24.20;58.10;;;;;;5;36013373;39017144;-89
2021/08/18 17:11:09;;;;;;;;;;;24.00;58.10;;;;;;5;36013255;39016626;-89
2021/08/18 17:14:19;;;;;;;;;;;24.00;58.30;;;;;;5;36013921;39016414;-86
2021/08/18 17:17:31;;;;;;;;;;;24.00;58.50;;;;;;5;36014338;39015275;-88
2021/08/18 17:20:45;;;;;;;;;;;24.00;59.70;;;;;;5;36013121;39015633;-88
2021/08/18 17:23:59;;;;;;;;;;;24.00;58.80;;;;;;5;36014421;39764801;-88
2021/08/18 17:27:09;;;;;;;;;;;23.90;59.40;;;;;;5;36012989;39015064;-86
2021/08/18 17:30:22;;;;;;;;;;;23.90;59.20;;;;;;5;36014154;39016846;-87
2021/08/18 17:33:34;;;;;;;;;;;23.80;59.40;;;;;;5;36013117;39015725;-85
2021/08/18 17:36:47;;;;;;;;;;;23.80;59.30;;;;;;5;36013424;39016009;-87
2021/08/18 17:39:57;;;;;;;;;;;23.80;60.40;;;;;;5;36013448;39015590;-87
2021/08/18 17:43:11;;;;;;;;;;;23.70;61.00;;;;;;5;36013707;39015557;-87
2021/08/18 17:46:24;;;;;;;;;;;23.50;60.40;;;;;;5;36013795;39014400;-87
2021/08/18 17:49:36;;;;;;;;;;;23.30;61.10;;;;;;5;36012699;39015976;-86
2021/08/18 17:52:46;;;;;;;;;;;23.30;62.00;;;;;;5;36013533;39017956;-87
2021/08/18 17:56:00;;;;;;;;;;;23.10;62.20;;;;;;5;36013944;39765916;-86
2021/08/18 17:59:13;;;;;;;;;;;22.90;63.10;;;;;;5;36014157;39016540;-86
2021/08/18 18:02:25;;;;;;;;;;;22.80;64.00;;;;;;5;36014556;39016294;-86
2021/08/18 18:05:36;;;;;;;;;;;22.70;63.20;;;;;;5;36013668;39015942;-86
2021/08/18 18:08:49;;;;;;;;;;;22.50;64.30;;;;;;5;36014044;39016629;-86
2021/08/18 18:12:02;;;;;;;;;;;22.30;64.40;;;;;;5;36012829;39015879;-88
2021/08/18 18:15:15;;;;;;;;;;;22.10;65.60;;;;;;5;36013142;39015804;-85
2021/08/18 18:18:24;;;;;;;;;;;22.00;64.90;;;;;;5;36014889;39015810;-86
2021/08/18 18:21:37;;;;;;;;;;;21.70;67.40;;;;;;5;36014771;39015882;-86
2021/08/18 18:24:51;;;;;;;;;;;21.50;68.20;;;;;;5;36013276;39017185;-86
2021/08/18 18:28:05;;;;;;;;;;;21.30;70.40;;;;;;5;36014107;39766954;-87
2021/08/18 18:31:16;;;;;;;;;;;21.10;71.40;;;;;;5;36015137;39015762;-86
2021/08/18 18:34:29;;;;;;;;;;;20.90;71.50;;;;;;5;36015254;39015744;-86
2021/08/18 18:37:42;;;;;;;;;;;20.80;72.40;;;;;;5;36013712;39016368;-86
2021/08/18 18:40:55;;;;;;;;;;;20.60;74.50;;;;;;5;36014246;39015912;-89
2021/08/18 18:44:06;;;;;;;;;;;20.50;75.00;;;;;;5;36014313;39015652;-89
2021/08/18 18:47:19;;;;;;;;;;;20.40;75.90;;;;;;5;36013926;39015904;-88
2021/08/18 18:50:32;;;;;;;;;;;20.20;76.50;;;;;;5;36013863;39016599;-88
2021/08/18 18:53:44;;;;;;;;;;;20.10;78.00;;;;;;5;36014228;39016295;-89
2021/08/18 18:56:54;;;;;;;;;;;20.00;79.80;;;;;;5;36014206;39016242;-89
2021/08/18 19:00:09;;;;;;;;;;;19.80;81.20;;;;;;5;36013517;39765503;-88
2021/08/18 19:03:22;;;;;;;;;;;19.60;80.80;;;;;;5;36013388;39016551;-90
2021/08/18 19:06:35;;;;;;;;;;;19.50;82.00;;;;;;5;36014068;39017503;-90
2021/08/18 19:09:44;;;;;;;;;;;19.40;82.50;;;;;;5;36013606;39017037;-88
2021/08/18 19:13:05;;;;;;;;;;;19.30;83.50;;;;;;5;36014954;39016193;-88
2021/08/18 19:16:17;;;;;;;;;;;19.20;83.70;;;;;;5;36014629;39016094;-88
2021/08/18 19:19:30;;;;;;;;;;;19.00;84.30;;;;;;5;36015015;39015497;-88
2021/08/18 19:22:40;;;;;;;;;;;18.80;85.00;;;;;;5;36014293;39015585;-89
2021/08/18 19:25:52;;;;;;;;;;;18.60;86.20;;;;;;5;36013433;39015907;-89
2021/08/18 19:29:05;;;;;;;;;;;18.50;87.50;;;;;;5;36013801;39015668;-88
2021/08/18 19:32:19;;;;;;;;;;;18.40;88.00;;;;;;5;36014266;39766944;-89
2021/08/18 19:35:29;;;;;;;;;;;18.20;88.30;;;;;;5;36014454;39016881;-89
2021/08/18 19:38:41;;;;;;;;;;;18.20;89.50;;;;;;5;36013518;39015437;-88
2021/08/18 19:41:54;;;;;;;;;;;18.10;90.10;;;;;;5;36014850;39015294;-88
2021/08/18 19:45:07;;;;;;;;;;;17.90;90.10;;;;;;5;36013552;39017955;-88
2021/08/18 19:48:17;;;;;;;;;;;17.80;90.70;;;;;;5;36014254;39016787;-88
2021/08/18 19:51:30;;;;;;;;;;;17.70;91.00;;;;;;5;36014527;39016636;-88
2021/08/18 19:54:42;;;;;;;;;;;17.60;91.70;;;;;;5;36013952;39016683;-88
2021/08/18 19:57:55;;;;;;;;;;;17.50;92.00;;;;;;5;36013780;39016619;-88
2021/08/18 20:01:05;;;;;;;;;;;17.40;92.40;;;;;;5;36014546;39016484;-88
2021/08/18 20:04:19;;;;;;;;;;;17.30;92.70;;;;;;5;36013743;39766676;-88
2021/08/18 20:07:32;;;;;;;;;;;17.20;93.40;;;;;;5;36013538;39016653;-88
2021/08/18 20:10:45;;;;;;;;;;;17.10;93.80;;;;;;5;36013467;39016615;-92
2021/08/18 20:13:54;;;;;;;;;;;17.10;95.10;;;;;;5;36013587;39019428;-90
2021/08/18 20:17:07;;;;;;;;;;;16.90;95.30;;;;;;5;36014075;39015974;-90
2021/08/18 20:20:20;;;;;;;;;;;16.90;96.00;;;;;;5;36013990;39017135;-89
2021/08/18 20:23:33;;;;;;;;;;;16.80;97.00;;;;;;5;36013336;39015790;-91
2021/08/18 20:26:43;;;;;;;;;;;16.70;97.90;;;;;;5;36013858;39016365;-90
2021/08/18 20:29:56;;;;;;;;;;;16.60;98.50;;;;;;5;36014157;39016301;-90
2021/08/18 20:33:08;;;;;;;;;;;16.60;99.90;;;;;;5;36013206;39016239;-91
2021/08/18 20:36:23;;;;;;;;;;;16.50;99.90;;;;;;5;36014880;39765546;-90
2021/08/18 20:39:33;;;;;;;;;;;16.40;99.90;;;;;;5;36014906;39016094;-91
2021/08/18 20:42:46;;;;;;;;;;;16.40;99.90;;;;;;5;36013283;39015608;-90
2021/08/18 20:46:00;;;;;;;;;;;16.30;99.90;;;;;;5;36013610;39015900;-91
2021/08/18 20:49:14;;;;;;;;;;;16.30;99.90;;;;;;5;36013819;39015775;-91
2021/08/18 20:52:24;;;;;;;;;;;16.20;99.90;;;;;;5;36014359;39015819;-90
2021/08/18 20:55:37;;;;;;;;;;;16.10;99.90;;;;;;5;36013345;39015336;-91
2021/08/18 20:58:50;;;;;;;;;;;16.10;99.90;;;;;;5;36013676;39016637;-91
2021/08/18 21:02:02;;;;;;;;;;;16.10;99.90;;;;;;5;36013492;39015450;-91